| time (UTC) | temp F | wind direction | speed knots | gust knots | rain 1hr in | rain 24hr in | rain mn in | humidity % | barometer mb |
| 20260509201547 | 85 | 240 | 0.9 | 0.9 | 0.00 | 0.00 | 0.00 | 61 | 1004.8 |
| 20260509201045 | 85 | 127 | 2.6 | 2.6 | 0.00 | 0.00 | 0.00 | 60 | 1004.9 |
| 20260509200539 | 85 | 15 | 0.9 | 0.9 | 0.00 | 0.00 | 0.00 | 61 | 1004.9 |
| 20260509200036 | 86 | 33 | 1.7 | 1.7 | 0.00 | 0.00 | 0.00 | 58 | 1005.1 |
| 20260509195532 | 85 | 268 | 0.9 | 0.9 | 0.00 | 0.00 | 0.00 | 60 | 1005.2 |
| 20260509195031 | 85 | 245 | 1.7 | 1.7 | 0.00 | 0.00 | 0.00 | 59 | 1005.2 |
| 20260509194526 | 86 | 260 | 0.9 | 0.9 | 0.00 | 0.00 | 0.00 | 58 | 1005.1 |
| 20260509194024 | 85 | 240 | 0.9 | 0.9 | 0.00 | 0.00 | 0.00 | 61 | 1005.4 |
| 20260509193525 | 85 | 262 | 0.9 | 0.9 | 0.00 | 0.00 | 0.00 | 60 | 1005.4 |
| 20260509193022 | 85 | 198 | 0.0 | 0.0 | 0.00 | 0.00 | 0.00 | 61 | 1005.6 |
| 20260509192518 | 85 | 252 | 0.9 | 0.9 | 0.00 | 0.00 | 0.00 | 61 | 1005.7 |
| 20260509192013 | 84 | 60 | 0.0 | 0.0 | 0.00 | 0.00 | 0.00 | 61 | 1005.8 |
| 20260509191508 | 85 | 37 | 0.9 | 0.9 | 0.00 | 0.00 | 0.00 | 60 | 1005.6 |
| 20260509191004 | 84 | 221 | 0.0 | 0.9 | 0.00 | 0.00 | 0.00 | 62 | 1005.7 |
| 20260509190501 | 84 | 55 | 0.9 | 0.9 | 0.00 | 0.00 | 0.00 | 62 | 1005.6 |
| 20260509185959 | 84 | 164 | 0.9 | 1.7 | 0.00 | 0.00 | 0.00 | 63 | 1005.6 |
| 20260509185456 | 84 | 78 | 0.9 | 0.9 | 0.00 | 0.00 | 0.00 | 63 | 1005.7 |
| 20260509184952 | 84 | 16 | 0.9 | 0.9 | 0.00 | 0.00 | 0.00 | 61 | 1006.1 |
| 20260509184451 | 84 | 241 | 0.9 | 1.7 | 0.00 | 0.00 | 0.00 | 63 | 1006.1 |
| 20260509183947 | 83 | 271 | 0.9 | 1.7 | 0.00 | 0.00 | 0.00 | 63 | 1005.7 |
| 20260509183441 | 83 | 205 | 0.9 | 1.7 | 0.00 | 0.00 | 0.00 | 65 | 1005.8 |
| 20260509182938 | 84 | 283 | 1.7 | 2.6 | 0.00 | 0.00 | 0.00 | 63 | 1006.0 |
| 20260509182434 | 84 | 147 | 0.0 | 0.9 | 0.00 | 0.00 | 0.00 | 64 | 1006.0 |
| 20260509181932 | 83 | 0 | 1.7 | 1.7 | 0.00 | 0.00 | 0.00 | 65 | 1006.1 |
| 20260509181430 | 83 | 214 | 0.0 | 0.0 | 0.00 | 0.00 | 0.00 | 68 | 1006.2 |
| 20260509180927 | 82 | 280 | 1.7 | 1.7 | 0.00 | 0.00 | 0.00 | 69 | 1006.3 |
| 20260509180422 | 82 | 181 | 2.6 | 2.6 | 0.00 | 0.00 | 0.00 | 69 | 1006.4 |
| 20260509175919 | 82 | 200 | 0.0 | 0.9 | 0.00 | 0.00 | 0.00 | 70 | 1006.4 |
| 20260509175415 | 81 | 242 | 0.0 | 0.0 | 0.00 | 0.00 | 0.00 | 71 | 1006.4 |
| 20260509174911 | 80 | 240 | 0.9 | 0.9 | 0.00 | 0.00 | 0.00 | 73 | 1006.7 |
| 20260509174408 | 81 | 197 | 0.9 | 0.9 | 0.00 | 0.00 | 0.00 | 73 | 1006.9 |
| 20260509173903 | 80 | 247 | 0.9 | 1.7 | 0.00 | 0.00 | 0.00 | 72 | 1006.8 |
| 20260509173358 | 81 | 267 | 0.9 | 1.7 | 0.00 | 0.00 | 0.00 | 73 | 1006.8 |
| 20260509172854 | 80 | 192 | 1.7 | 2.6 | 0.00 | 0.00 | 0.00 | 73 | 1006.7 |
| 20260509172351 | 80 | 173 | 1.7 | 1.7 | 0.00 | 0.00 | 0.00 | 74 | 1006.7 |
| 20260509171847 | 81 | 243 | 0.9 | 0.9 | 0.00 | 0.00 | 0.00 | 72 | 1006.8 |
| 20260509171343 | 81 | 253 | 1.7 | 2.6 | 0.00 | 0.00 | 0.00 | 73 | 1006.4 |
| 20260509170840 | 80 | 256 | 0.9 | 0.9 | 0.00 | 0.00 | 0.00 | 74 | 1006.7 |
| 20260509170336 | 81 | 128 | 0.9 | 0.9 | 0.00 | 0.00 | 0.00 | 73 | 1006.7 |
| 20260509165830 | 81 | 249 | 0.9 | 0.9 | 0.00 | 0.00 | 0.00 | 73 | 1006.5 |
| 20260509165325 | 80 | 316 | 0.0 | 0.9 | 0.00 | 0.00 | 0.00 | 75 | 1006.8 |
| 20260509164821 | 80 | 246 | 0.0 | 0.0 | 0.00 | 0.00 | 0.00 | 74 | 1006.5 |
| 20260509164318 | 79 | 253 | 0.9 | 0.9 | 0.00 | 0.00 | 0.00 | 75 | 1006.8 |
| 20260509163814 | 79 | 243 | 0.9 | 0.9 | 0.00 | 0.00 | 0.00 | 76 | 1006.8 |
| 20260509163311 | 80 | 110 | 0.9 | 1.7 | 0.00 | 0.00 | 0.00 | 75 | 1006.8 |
| 20260509162810 | 79 | 171 | 0.9 | 0.9 | 0.00 | 0.00 | 0.00 | 75 | 1006.8 |
| 20260509162306 | 79 | 291 | 1.7 | 1.7 | 0.00 | 0.00 | 0.00 | 74 | 1006.8 |
| 20260509161759 | 79 | 239 | 0.9 | 0.9 | 0.00 | 0.00 | 0.00 | 76 | 1006.6 |
| 20260509161255 | 78 | 186 | 0.0 | 0.9 | 0.00 | 0.00 | 0.00 | 79 | 1006.7 |
| 20260509160751 | 78 | 288 | 0.9 | 0.9 | 0.00 | 0.00 | 0.00 | 80 | 1006.7 |
| 20260509160247 | 78 | 253 | 0.9 | 0.9 | 0.00 | 0.00 | 0.00 | 80 | 1006.6 |
| 20260509155742 | 78 | 248 | 0.9 | 0.9 | 0.00 | 0.00 | 0.00 | 80 | 1006.6 |
| 20260509155239 | 78 | 260 | 0.9 | 0.9 | 0.00 | 0.00 | 0.00 | 80 | 1006.8 |
| 20260509154735 | 78 | 257 | 0.9 | 0.9 | 0.00 | 0.00 | 0.00 | 82 | 1006.8 |
| 20260509154233 | 77 | 255 | 0.0 | 0.9 | 0.00 | 0.00 | 0.00 | 85 | 1006.5 |
| 20260509153730 | 76 | 170 | 0.9 | 1.7 | 0.00 | 0.00 | 0.00 | 87 | 1006.5 |
| 20260509153226 | 76 | 222 | 0.0 | 0.9 | 0.00 | 0.00 | 0.00 | 87 | 1006.6 |
| 20260509152722 | 75 | 247 | 0.0 | 0.9 | 0.00 | 0.00 | 0.00 | 90 | 1006.6 |
| 20260509152219 | 74 | 210 | 0.9 | 0.9 | 0.00 | 0.00 | 0.00 | 91 | 1006.6 |
| 20260509151716 | 74 | 221 | 0.0 | 0.9 | 0.00 | 0.00 | 0.00 | 92 | 1006.5 |
| 20260509151213 | 73 | 262 | 0.0 | 0.0 | 0.00 | 0.00 | 0.00 | 92 | 1006.8 |
| 20260509150710 | 73 | 234 | 0.0 | 0.0 | 0.00 | 0.00 | 0.00 | 93 | 1006.8 |
| 20260509150209 | 73 | 218 | 0.0 | 0.0 | 0.00 | 0.00 | 0.00 | 93 | 1006.9 |
| 20260509145704 | 73 | 250 | 0.0 | 0.0 | 0.00 | 0.00 | 0.00 | 93 | 1006.8 |
| 20260509145200 | 73 | 185 | 0.0 | 0.0 | 0.00 | 0.00 | 0.00 | 93 | 1006.8 |
| 20260509144656 | 73 | 209 | 0.0 | 0.0 | 0.00 | 0.00 | 0.00 | 93 | 1007.0 |
| 20260509144154 | 72 | 185 | 0.0 | 0.0 | 0.00 | 0.00 | 0.00 | 93 | 1006.8 |
| 20260509143651 | 72 | 184 | 0.0 | 0.9 | 0.00 | 0.00 | 0.00 | 92 | 1007.0 |
| 20260509143148 | 73 | 205 | 0.0 | 0.0 | 0.00 | 0.00 | 0.00 | 92 | 1006.9 |
| 20260509142644 | 73 | 185 | 0.0 | 0.0 | 0.00 | 0.00 | 0.00 | 91 | 1007.0 |
| 20260509142141 | 73 | 234 | 0.0 | 0.9 | 0.00 | 0.00 | 0.00 | 91 | 1007.1 |
| 20260509141636 | 73 | 259 | 0.0 | 0.0 | 0.00 | 0.00 | 0.00 | 90 | 1007.2 |
| 20260509141133 | 73 | 249 | 0.9 | 0.9 | 0.00 | 0.00 | 0.00 | 90 | 1007.0 |
| 20260509140630 | 73 | 234 | 0.0 | 0.0 | 0.00 | 0.00 | 0.00 | 90 | 1006.9 |
| 20260509140128 | 73 | 252 | 0.0 | 0.0 | 0.00 | 0.00 | 0.00 | 90 | 1006.9 |
| 20260509135625 | 73 | 241 | 0.0 | 0.0 | 0.00 | 0.00 | 0.00 | 90 | 1006.9 |
| 20260509135123 | 73 | 260 | 0.9 | 0.9 | 0.00 | 0.00 | 0.00 | 90 | 1006.9 |
| 20260509134619 | 73 | 240 | 0.0 | 0.0 | 0.00 | 0.00 | 0.00 | 91 | 1006.9 |
| 20260509134117 | 73 | 201 | 0.0 | 0.0 | 0.00 | 0.00 | 0.00 | 91 | 1006.8 |
| 20260509133614 | 72 | 251 | 0.9 | 0.9 | 0.00 | 0.00 | 0.00 | 92 | 1006.5 |
| 20260509133111 | 72 | 332 | 0.9 | 0.9 | 0.00 | 0.00 | 0.00 | 92 | 1006.6 |
| 20260509132609 | 72 | 256 | 0.9 | 0.9 | 0.00 | 0.00 | 0.00 | 93 | 1006.8 |
| 20260509132107 | 72 | 232 | 0.0 | 0.0 | 0.00 | 0.00 | 0.00 | 93 | 1006.7 |
| 20260509131603 | 72 | 275 | 0.0 | 0.9 | 0.00 | 0.00 | 0.00 | 93 | 1007.0 |
| 20260509131100 | 72 | 242 | 0.0 | 0.0 | 0.00 | 0.00 | 0.00 | 94 | 1006.9 |
| 20260509130556 | 71 | 249 | 0.9 | 0.9 | 0.00 | 0.00 | 0.00 | 94 | 1006.9 |
| 20260509130053 | 71 | 238 | 0.0 | 0.0 | 0.00 | 0.00 | 0.00 | 94 | 1006.8 |
| 20260509125549 | 71 | 243 | 0.0 | 0.0 | 0.00 | 0.00 | 0.00 | 94 | 1006.8 |
| 20260509125046 | 71 | 255 | 0.0 | 0.0 | 0.00 | 0.00 | 0.00 | 94 | 1006.8 |
| 20260509124542 | 71 | 231 | 0.0 | 0.0 | 0.00 | 0.00 | 0.00 | 94 | 1006.6 |
| 20260509124040 | 71 | 244 | 0.9 | 0.9 | 0.00 | 0.00 | 0.00 | 94 | 1006.6 |
| 20260509123537 | 71 | 248 | 0.9 | 0.9 | 0.00 | 0.00 | 0.00 | 94 | 1006.6 |
| 20260509123033 | 71 | 262 | 0.9 | 0.9 | 0.00 | 0.00 | 0.00 | 95 | 1006.7 |
| 20260509122530 | 71 | 246 | 0.9 | 0.9 | 0.00 | 0.00 | 0.00 | 95 | 1006.6 |
| 20260509122027 | 71 | 240 | 0.9 | 0.9 | 0.00 | 0.00 | 0.00 | 95 | 1006.5 |
| 20260509121523 | 70 | 239 | 0.9 | 0.9 | 0.00 | 0.00 | 0.00 | 95 | 1006.5 |
| 20260509121021 | 70 | 262 | 0.9 | 0.9 | 0.00 | 0.00 | 0.00 | 95 | 1006.0 |
| 20260509120519 | 70 | 208 | 0.0 | 0.9 | 0.00 | 0.00 | 0.00 | 95 | 1005.7 |
| 20260509120017 | 70 | 253 | 0.9 | 0.9 | 0.00 | 0.00 | 0.00 | 95 | 1006.1 |
| 20260509115514 | 70 | 235 | 0.9 | 0.9 | 0.00 | 0.00 | 0.00 | 95 | 1006.2 |
| 20260509115012 | 70 | 244 | 1.7 | 2.6 | 0.00 | 0.00 | 0.00 | 95 | 1006.2 |
| 20260509114510 | 70 | 251 | 0.9 | 1.7 | 0.00 | 0.00 | 0.00 | 95 | 1006.0 |
| 20260509114009 | 70 | 260 | 0.0 | 0.9 | 0.00 | 0.00 | 0.00 | 95 | 1006.1 |
| 20260509113506 | 70 | 156 | 0.9 | 0.9 | 0.00 | 0.00 | 0.00 | 95 | 1005.8 |
| 20260509113004 | 70 | 250 | 0.9 | 1.7 | 0.00 | 0.00 | 0.00 | 95 | 1005.6 |
| 20260509112500 | 70 | 281 | 0.9 | 0.9 | 0.00 | 0.00 | 0.00 | 95 | 1005.4 |
| 20260509111956 | 70 | 198 | 0.9 | 0.9 | 0.00 | 0.00 | 0.00 | 95 | 1005.7 |
| 20260509111454 | 70 | 238 | 0.9 | 0.9 | 0.00 | 0.00 | 0.00 | 95 | 1005.2 |
| 20260509110951 | 70 | 230 | 0.0 | 0.0 | 0.00 | 0.00 | 0.00 | 95 | 1005.2 |
| 20260509110447 | 70 | 214 | 0.0 | 0.0 | 0.00 | 0.00 | 0.00 | 95 | 1004.9 |
| 20260509105945 | 70 | 240 | 0.9 | 0.9 | 0.00 | 0.00 | 0.00 | 95 | 1004.8 |
| 20260509105443 | 70 | 251 | 1.7 | 1.7 | 0.00 | 0.00 | 0.00 | 95 | 1004.9 |
| 20260509104940 | 70 | 257 | 2.6 | 2.6 | 0.00 | 0.00 | 0.00 | 95 | 1004.9 |
| 20260509104437 | 70 | 189 | 0.9 | 0.9 | 0.00 | 0.00 | 0.00 | 95 | 1005.1 |
| 20260509103934 | 70 | 245 | 0.0 | 0.0 | 0.00 | 0.00 | 0.00 | 95 | 1005.1 |
| 20260509103432 | 70 | 234 | 0.9 | 0.9 | 0.00 | 0.00 | 0.00 | 95 | 1005.0 |
| 20260509102930 | 70 | 257 | 0.0 | 0.9 | 0.00 | 0.00 | 0.00 | 95 | 1005.0 |
| 20260509102427 | 70 | 230 | 0.0 | 0.9 | 0.00 | 0.00 | 0.00 | 95 | 1005.3 |
| 20260509101923 | 70 | 239 | 0.9 | 0.9 | 0.00 | 0.00 | 0.00 | 95 | 1005.1 |
| 20260509101419 | 70 | 249 | 1.7 | 1.7 | 0.00 | 0.00 | 0.00 | 95 | 1005.1 |
| 20260509100917 | 69 | 241 | 0.9 | 1.7 | 0.00 | 0.00 | 0.00 | 95 | 1005.2 |
| 20260509100414 | 69 | 236 | 0.9 | 0.9 | 0.00 | 0.00 | 0.00 | 94 | 1005.4 |
| 20260509095910 | 70 | 219 | 0.0 | 0.9 | 0.00 | 0.00 | 0.00 | 94 | 1005.4 |
| 20260509095408 | 70 | 249 | 0.9 | 0.9 | 0.00 | 0.00 | 0.00 | 94 | 1005.5 |
| 20260509094905 | 70 | 246 | 0.9 | 0.9 | 0.00 | 0.00 | 0.00 | 94 | 1005.7 |
| 20260509094401 | 70 | 252 | 0.9 | 0.9 | 0.00 | 0.00 | 0.00 | 94 | 1005.8 |
| 20260509093859 | 70 | 244 | 0.9 | 0.9 | 0.00 | 0.00 | 0.00 | 94 | 1005.7 |
| 20260509093356 | 69 | 242 | 0.9 | 0.9 | 0.00 | 0.00 | 0.00 | 94 | 1005.8 |
| 20260509092855 | 69 | 226 | 0.0 | 0.9 | 0.00 | 0.00 | 0.00 | 94 | 1005.6 |
| 20260509092352 | 69 | 199 | 0.9 | 0.9 | 0.00 | 0.00 | 0.00 | 93 | 1005.7 |
| 20260509091850 | 69 | 208 | 0.0 | 0.0 | 0.00 | 0.00 | 0.00 | 93 | 1005.8 |
| 20260509091346 | 69 | 252 | 0.0 | 0.9 | 0.00 | 0.00 | 0.00 | 93 | 1005.6 |
| 20260509090844 | 70 | 232 | 0.0 | 0.9 | 0.00 | 0.00 | 0.00 | 93 | 1005.5 |
| 20260509090341 | 70 | 268 | 0.0 | 0.9 | 0.00 | 0.00 | 0.00 | 93 | 1005.5 |
| 20260509085838 | 70 | 210 | 0.0 | 0.0 | 0.00 | 0.00 | 0.00 | 93 | 1005.5 |
| 20260509085335 | 70 | 248 | 0.0 | 0.9 | 0.00 | 0.00 | 0.00 | 92 | 1005.5 |
| 20260509084832 | 70 | 298 | 0.9 | 0.9 | 0.00 | 0.00 | 0.00 | 92 | 1005.6 |
| 20260509084329 | 70 | 247 | 0.9 | 0.9 | 0.00 | 0.00 | 0.00 | 92 | 1005.8 |
| 20260509083827 | 70 | 243 | 0.0 | 0.0 | 0.00 | 0.00 | 0.00 | 92 | 1005.6 |
| 20260509083323 | 70 | 140 | 0.9 | 1.7 | 0.00 | 0.00 | 0.00 | 92 | 1005.6 |
| 20260509082820 | 70 | 255 | 0.9 | 0.9 | 0.00 | 0.00 | 0.00 | 92 | 1006.0 |
| 20260509082316 | 70 | 258 | 1.7 | 1.7 | 0.00 | 0.00 | 0.00 | 91 | 1006.0 |
| 20260509081814 | 70 | 212 | 1.7 | 1.7 | 0.00 | 0.00 | 0.00 | 91 | 1006.1 |
| 20260509081311 | 70 | 255 | 0.9 | 0.9 | 0.00 | 0.00 | 0.00 | 91 | 1006.2 |
| 20260509080809 | 70 | 191 | 1.7 | 2.6 | 0.00 | 0.00 | 0.00 | 90 | 1006.2 |
| 20260509080306 | 70 | 250 | 0.9 | 0.9 | 0.00 | 0.00 | 0.00 | 90 | 1006.3 |
| 20260509075805 | 70 | 208 | 0.0 | 0.0 | 0.00 | 0.00 | 0.00 | 90 | 1006.5 |
| 20260509075301 | 70 | 261 | 0.9 | 0.9 | 0.00 | 0.00 | 0.00 | 90 | 1006.5 |
| 20260509074758 | 70 | 208 | 0.0 | 0.0 | 0.00 | 0.00 | 0.00 | 90 | 1006.8 |
| 20260509074256 | 70 | 170 | 0.9 | 0.9 | 0.00 | 0.00 | 0.00 | 90 | 1006.9 |
| 20260509073752 | 70 | 40 | 0.0 | 0.0 | 0.00 | 0.00 | 0.00 | 90 | 1007.0 |
| 20260509073248 | 70 | 176 | 0.0 | 0.9 | 0.00 | 0.00 | 0.00 | 89 | 1006.7 |
| 20260509072745 | 70 | 95 | 0.0 | 0.0 | 0.00 | 0.00 | 0.00 | 89 | 1006.8 |
| 20260509072242 | 70 | 153 | 0.0 | 0.9 | 0.00 | 0.00 | 0.00 | 89 | 1006.8 |
| 20260509071739 | 70 | 215 | 0.0 | 0.0 | 0.00 | 0.00 | 0.00 | 89 | 1006.8 |
| 20260509071236 | 70 | 178 | 0.0 | 0.9 | 0.00 | 0.00 | 0.00 | 89 | 1006.9 |
| 20260509070733 | 70 | 147 | 0.0 | 0.0 | 0.00 | 0.00 | 0.00 | 89 | 1006.6 |
| 20260509070229 | 70 | 168 | 0.9 | 1.7 | 0.00 | 0.00 | 0.00 | 89 | 1006.7 |
| 20260509065726 | 70 | 45 | 0.9 | 0.9 | 0.00 | 0.00 | 0.00 | 89 | 1006.5 |
| 20260509065222 | 70 | 153 | 0.0 | 0.0 | 0.00 | 0.00 | 0.00 | 89 | 1006.6 |
| 20260509064718 | 70 | 107 | 0.0 | 0.0 | 0.00 | 0.00 | 0.00 | 88 | 1006.7 |
| 20260509064216 | 70 | 221 | 0.0 | 0.9 | 0.00 | 0.00 | 0.00 | 88 | 1006.4 |
| 20260509063713 | 70 | 180 | 2.6 | 3.5 | 0.00 | 0.00 | 0.00 | 88 | 1006.2 |
| 20260509063209 | 71 | 149 | 0.9 | 0.9 | 0.00 | 0.00 | 0.00 | 87 | 1006.6 |
| 20260509062707 | 70 | 147 | 0.9 | 0.9 | 0.00 | 0.00 | 0.00 | 87 | 1006.7 |
| 20260509062204 | 71 | 30 | 1.7 | 1.7 | 0.00 | 0.00 | 0.00 | 87 | 1006.8 |
| 20260509061701 | 71 | 37 | 0.0 | 0.9 | 0.00 | 0.00 | 0.00 | 87 | 1006.9 |
| 20260509061158 | 71 | 154 | 0.0 | 0.0 | 0.00 | 0.00 | 0.00 | 87 | 1006.7 |
| 20260509060655 | 71 | 171 | 0.9 | 1.7 | 0.00 | 0.00 | 0.00 | 87 | 1007.1 |
| 20260509060152 | 71 | 153 | 0.9 | 0.9 | 0.00 | 0.00 | 0.00 | 86 | 1007.2 |
| 20260509055647 | 71 | 89 | 0.9 | 0.9 | 0.00 | 0.00 | 0.00 | 86 | 1007.3 |
| 20260509055143 | 71 | 124 | 0.9 | 0.9 | 0.00 | 0.00 | 0.00 | 86 | 1007.5 |
| 20260509054640 | 71 | 127 | 0.0 | 0.0 | 0.00 | 0.00 | 0.00 | 86 | 1007.5 |
| 20260509054138 | 71 | 158 | 0.0 | 0.0 | 0.00 | 0.00 | 0.00 | 86 | 1007.5 |
| 20260509053636 | 71 | 100 | 0.0 | 0.0 | 0.00 | 0.00 | 0.00 | 86 | 1007.7 |
| 20260509053133 | 71 | 202 | 0.0 | 0.0 | 0.00 | 0.00 | 0.00 | 86 | 1007.6 |
| 20260509052631 | 71 | 199 | 0.0 | 0.0 | 0.00 | 0.00 | 0.00 | 85 | 1007.6 |
| 20260509052128 | 71 | 47 | 0.9 | 0.9 | 0.00 | 0.00 | 0.00 | 85 | 1007.5 |
| 20260509051626 | 71 | 162 | 1.7 | 1.7 | 0.00 | 0.00 | 0.00 | 85 | 1007.4 |
| 20260509051122 | 71 | 144 | 0.9 | 0.9 | 0.00 | 0.00 | 0.00 | 85 | 1007.4 |
| 20260509050620 | 71 | 153 | 0.0 | 0.0 | 0.00 | 0.00 | 0.00 | 85 | 1007.5 |
| 20260509050116 | 71 | 129 | 0.0 | 0.0 | 0.00 | 0.00 | 0.00 | 85 | 1007.5 |
| 20260509045614 | 71 | 57 | 0.0 | 0.9 | 0.00 | 0.00 | 0.00 | 85 | 1007.1 |
| 20260509045110 | 71 | 98 | 0.0 | 0.0 | 0.00 | 0.00 | 0.00 | 85 | 1007.1 |
| 20260509044608 | 72 | 164 | 0.0 | 0.0 | 0.00 | 0.00 | 0.00 | 85 | 1006.8 |
| 20260509044105 | 72 | 167 | 0.0 | 0.9 | 0.00 | 0.00 | 0.00 | 85 | 1006.9 |
| 20260509043601 | 72 | 265 | 0.0 | 0.9 | 0.00 | 0.00 | 0.00 | 84 | 1006.5 |
| 20260509043057 | 72 | 243 | 0.0 | 0.9 | 0.00 | 0.00 | 0.00 | 84 | 1006.8 |
| 20260509042553 | 72 | 220 | 0.0 | 0.9 | 0.00 | 0.00 | 0.00 | 84 | 1006.7 |
| 20260509042049 | 72 | 137 | 1.7 | 2.6 | 0.00 | 0.00 | 0.00 | 84 | 1006.7 |
| 20260509041546 | 72 | 208 | 0.0 | 0.9 | 0.00 | 0.00 | 0.00 | 84 | 1006.5 |
| 20260509041044 | 72 | 157 | 0.0 | 0.0 | 0.00 | 0.00 | 0.00 | 84 | 1006.5 |
| 20260509040542 | 72 | 234 | 0.0 | 0.9 | 0.00 | 0.00 | 0.00 | 84 | 1006.5 |
| 20260509040039 | 72 | 163 | 0.0 | 0.0 | 0.00 | 0.00 | 0.00 | 84 | 1006.5 |
| 20260509035536 | 72 | 145 | 1.7 | 2.6 | 0.00 | 0.00 | 0.00 | 83 | 1006.4 |
| 20260509035032 | 72 | 125 | 0.9 | 0.9 | 0.00 | 0.00 | 0.00 | 83 | 1006.3 |
| 20260509034531 | 72 | 295 | 1.7 | 1.7 | 0.00 | 0.00 | 0.00 | 83 | 1006.1 |
| 20260509034027 | 72 | 273 | 0.9 | 0.9 | 0.00 | 0.00 | 0.00 | 82 | 1006.5 |
| 20260509033524 | 72 | 253 | 0.9 | 0.9 | 0.00 | 0.00 | 0.00 | 82 | 1006.7 |
| 20260509033021 | 72 | 134 | 0.9 | 0.9 | 0.00 | 0.00 | 0.00 | 82 | 1006.5 |
| 20260509032518 | 72 | 250 | 0.0 | 0.0 | 0.00 | 0.00 | 0.00 | 82 | 1006.7 |
| 20260509032015 | 73 | 173 | 0.0 | 0.0 | 0.00 | 0.00 | 0.00 | 81 | 1006.5 |
| 20260509031513 | 73 | 201 | 0.0 | 0.0 | 0.00 | 0.00 | 0.00 | 81 | 1006.3 |
| 20260509031010 | 73 | 173 | 0.0 | 0.0 | 0.00 | 0.00 | 0.00 | 81 | 1006.1 |
| 20260509030508 | 72 | 258 | 0.0 | 0.9 | 0.00 | 0.00 | 0.00 | 80 | 1006.3 |
| 20260509030005 | 72 | 225 | 0.9 | 0.9 | 0.00 | 0.00 | 0.00 | 80 | 1006.3 |
| 20260509025501 | 72 | 195 | 0.0 | 0.9 | 0.00 | 0.00 | 0.00 | 80 | 1006.1 |
| 20260509024956 | 73 | 193 | 0.0 | 0.9 | 0.00 | 0.00 | 0.00 | 80 | 1005.8 |
| 20260509024452 | 73 | 189 | 0.9 | 1.7 | 0.00 | 0.00 | 0.00 | 80 | 1006.0 |
| 20260509023949 | 73 | 97 | 0.0 | 0.0 | 0.00 | 0.00 | 0.00 | 79 | 1005.8 |
| 20260509023446 | 73 | 206 | 1.7 | 1.7 | 0.00 | 0.00 | 0.00 | 79 | 1006.0 |
| 20260509022943 | 73 | 153 | 0.0 | 0.0 | 0.00 | 0.00 | 0.00 | 79 | 1005.6 |
| 20260509022440 | 73 | 121 | 0.9 | 0.9 | 0.00 | 0.00 | 0.00 | 79 | 1005.6 |
| 20260509021938 | 73 | 152 | 0.9 | 0.9 | 0.00 | 0.00 | 0.00 | 79 | 1005.4 |
| 20260509021434 | 73 | 188 | 0.0 | 0.9 | 0.00 | 0.00 | 0.00 | 78 | 1005.3 |
| 20260509020931 | 73 | 146 | 0.0 | 0.0 | 0.00 | 0.00 | 0.00 | 78 | 1005.2 |
| 20260509020430 | 73 | 169 | 1.7 | 2.6 | 0.00 | 0.00 | 0.00 | 78 | 1005.5 |
| 20260509015926 | 73 | 169 | 0.9 | 0.9 | 0.00 | 0.00 | 0.00 | 77 | 1005.2 |
| 20260509015425 | 73 | 159 | 0.0 | 0.0 | 0.00 | 0.00 | 0.00 | 77 | 1005.4 |
| 20260509014921 | 73 | 157 | 0.0 | 0.0 | 0.00 | 0.00 | 0.00 | 77 | 1005.3 |
| 20260509014418 | 73 | 160 | 0.9 | 1.7 | 0.00 | 0.00 | 0.00 | 77 | 1005.3 |
| 20260509013915 | 73 | 208 | 0.0 | 0.0 | 0.00 | 0.00 | 0.00 | 77 | 1005.2 |
| 20260509013412 | 73 | 169 | 0.9 | 0.9 | 0.00 | 0.00 | 0.00 | 76 | 1005.0 |
| 20260509012907 | 74 | 160 | 0.9 | 0.9 | 0.00 | 0.00 | 0.00 | 76 | 1005.1 |
| 20260509012404 | 74 | 125 | 0.0 | 0.0 | 0.00 | 0.00 | 0.00 | 76 | 1004.8 |
| 20260509011901 | 74 | 163 | 0.0 | 0.9 | 0.00 | 0.00 | 0.00 | 76 | 1005.0 |
| 20260509011359 | 74 | 135 | 0.9 | 1.7 | 0.00 | 0.00 | 0.00 | 75 | 1004.8 |
| 20260509010857 | 74 | 223 | 0.9 | 0.9 | 0.00 | 0.00 | 0.00 | 75 | 1004.8 |
| 20260509010354 | 74 | 223 | 0.9 | 0.9 | 0.00 | 0.00 | 0.00 | 74 | 1004.7 |
| 20260509005851 | 74 | 223 | 0.0 | 0.9 | 0.00 | 0.00 | 0.00 | 74 | 1004.7 |
| 20260509005349 | 74 | 159 | 0.9 | 0.9 | 0.00 | 0.00 | 0.00 | 74 | 1004.8 |
| 20260509004849 | 75 | 206 | 0.0 | 0.9 | 0.00 | 0.00 | 0.00 | 74 | 1004.8 |
| 20260509004345 | 75 | 223 | 0.0 | 0.0 | 0.00 | 0.00 | 0.00 | 73 | 1004.8 |
| 20260509003843 | 75 | 72 | 0.0 | 0.9 | 0.00 | 0.00 | 0.00 | 73 | 1004.8 |
| 20260509003340 | 75 | 266 | 0.9 | 0.9 | 0.00 | 0.00 | 0.00 | 72 | 1004.7 |
| 20260509002837 | 75 | 247 | 0.0 | 0.9 | 0.00 | 0.00 | 0.00 | 72 | 1004.6 |
| 20260509002335 | 75 | 245 | 0.9 | 0.9 | 0.00 | 0.00 | 0.00 | 71 | 1004.8 |
| 20260509001833 | 75 | 165 | 0.0 | 0.9 | 0.00 | 0.00 | 0.00 | 71 | 1004.6 |
| 20260509001328 | 76 | 257 | 0.9 | 0.9 | 0.00 | 0.00 | 0.00 | 71 | 1004.5 |
| 20260509000826 | 76 | 151 | 0.9 | 2.6 | 0.00 | 0.00 | 0.00 | 71 | 1004.6 |
| 20260509000325 | 76 | 144 | 0.9 | 0.9 | 0.00 | 0.00 | 0.00 | 70 | 1004.3 |
| 20260508235819 | 76 | 241 | 0.0 | 0.0 | 0.00 | 0.00 | 0.00 | 69 | 1004.5 |
| 20260508235317 | 76 | 205 | 0.9 | 1.7 | 0.00 | 0.00 | 0.00 | 69 | 1004.6 |
| 20260508234814 | 76 | 211 | 0.9 | 1.7 | 0.00 | 0.00 | 0.00 | 68 | 1004.4 |
| 20260508234310 | 77 | 141 | 0.9 | 1.7 | 0.00 | 0.00 | 0.00 | 68 | 1004.3 |
| 20260508233809 | 77 | 158 | 0.9 | 1.7 | 0.00 | 0.00 | 0.00 | 67 | 1004.2 |
| 20260508233308 | 77 | 199 | 1.7 | 2.6 | 0.00 | 0.00 | 0.00 | 66 | 1004.4 |
| 20260508232804 | 77 | 72 | 0.9 | 0.9 | 0.00 | 0.00 | 0.00 | 66 | 1004.5 |
| 20260508232300 | 77 | 73 | 1.7 | 5.2 | 0.00 | 0.00 | 0.00 | 66 | 1004.4 |
| 20260508231759 | 77 | 263 | 0.9 | 1.7 | 0.00 | 0.00 | 0.00 | 66 | 1004.6 |
| 20260508231255 | 77 | 115 | 1.7 | 2.6 | 0.00 | 0.00 | 0.00 | 67 | 1004.6 |
| 20260508230752 | 77 | 161 | 2.6 | 2.6 | 0.00 | 0.00 | 0.00 | 65 | 1004.8 |
| 20260508230248 | 77 | 154 | 1.7 | 1.7 | 0.00 | 0.00 | 0.00 | 66 | 1005.2 |
| 20260508225746 | 77 | 246 | 0.0 | 0.9 | 0.00 | 0.00 | 0.00 | 65 | 1005.2 |
| 20260508225242 | 77 | 146 | 0.9 | 1.7 | 0.00 | 0.00 | 0.00 | 65 | 1005.5 |
| 20260508224740 | 77 | 163 | 0.9 | 0.9 | 0.00 | 0.00 | 0.00 | 65 | 1006.0 |
| 20260508224237 | 77 | 223 | 0.0 | 0.0 | 0.00 | 0.00 | 0.00 | 64 | 1006.0 |
| 20260508223735 | 77 | 168 | 0.0 | 0.0 | 0.00 | 0.00 | 0.00 | 65 | 1005.8 |
| 20260508223232 | 77 | 130 | 0.9 | 1.7 | 0.00 | 0.00 | 0.00 | 64 | 1005.6 |
| 20260508222729 | 78 | 163 | 1.7 | 1.7 | 0.00 | 0.00 | 0.00 | 62 | 1006.0 |
| 20260508222227 | 78 | 172 | 3.5 | 3.5 | 0.00 | 0.00 | 0.00 | 62 | 1005.8 |
| 20260508221723 | 78 | 133 | 0.0 | 0.0 | 0.00 | 0.00 | 0.00 | 63 | 1005.6 |
| 20260508221219 | 78 | 176 | 0.9 | 0.9 | 0.00 | 0.00 | 0.00 | 62 | 1005.6 |
| 20260508220715 | 78 | 200 | 0.9 | 0.9 | 0.00 | 0.00 | 0.00 | 61 | 1005.7 |
| 20260508220212 | 78 | 220 | 0.9 | 0.9 | 0.00 | 0.00 | 0.00 | 61 | 1005.8 |
| 20260508215708 | 78 | 163 | 2.6 | 2.6 | 0.00 | 0.00 | 0.00 | 61 | 1005.7 |
| 20260508215205 | 78 | 137 | 0.9 | 0.9 | 0.00 | 0.00 | 0.00 | 60 | 1005.6 |
| 20260508214702 | 78 | 259 | 0.0 | 0.0 | 0.00 | 0.00 | 0.00 | 60 | 1006.4 |
| 20260508214159 | 78 | 191 | 0.0 | 0.0 | 0.00 | 0.00 | 0.00 | 60 | 1006.4 |
| 20260508213656 | 78 | 287 | 0.0 | 0.0 | 0.00 | 0.00 | 0.00 | 61 | 1006.2 |
| 20260508213152 | 78 | 27 | 0.9 | 0.9 | 0.00 | 0.00 | 0.00 | 59 | 1006.1 |
| 20260508212649 | 78 | 167 | 0.0 | 0.0 | 0.00 | 0.00 | 0.00 | 59 | 1005.8 |
| 20260508212145 | 79 | 107 | 0.9 | 3.5 | 0.00 | 0.00 | 0.00 | 58 | 1005.8 |
| 20260508211640 | 79 | 157 | 2.6 | 2.6 | 0.00 | 0.00 | 0.00 | 59 | 1006.0 |
| 20260508211137 | 78 | 169 | 0.0 | 0.9 | 0.00 | 0.00 | 0.00 | 61 | 1005.8 |
| 20260508210634 | 78 | 154 | 0.9 | 1.7 | 0.00 | 0.00 | 0.00 | 59 | 1005.8 |
| 20260508210132 | 78 | 188 | 1.7 | 3.5 | 0.00 | 0.00 | 0.00 | 61 | 1006.0 |
| 20260508205628 | 77 | 184 | 0.0 | 0.9 | 0.00 | 0.00 | 0.00 | 61 | 1006.0 |
| 20260508205125 | 78 | 170 | 0.9 | 0.9 | 0.00 | 0.00 | 0.00 | 61 | 1006.3 |
| 20260508204621 | 78 | 71 | 0.0 | 0.9 | 0.00 | 0.00 | 0.00 | 61 | 1006.2 |
| 20260508204117 | 78 | 80 | 0.9 | 0.9 | 0.00 | 0.00 | 0.00 | 60 | 1006.2 |
| 20260508203613 | 78 | 19 | 0.0 | 0.0 | 0.00 | 0.00 | 0.00 | 61 | 1005.6 |
| 20260508203109 | 78 | 176 | 5.2 | 6.1 | 0.00 | 0.00 | 0.00 | 60 | 1005.8 |
| 20260508202606 | 78 | 164 | 0.9 | 1.7 | 0.00 | 0.00 | 0.00 | 59 | 1006.0 |
| 20260508202103 | 78 | 169 | 0.9 | 1.7 | 0.00 | 0.00 | 0.00 | 60 | 1006.4 |